• Join FlightAware (Why Join?)
  • Login
  • US Flag 
06:53AM EDT


 

Airport Tracker/Info


-or-


 

Live Flight TrackerFlight Track Log ✈ CPT7773 ✈ 07-Oct-2013 ✈ KCOD - KCPR

Flight Track Log - Related Links

Times and Time Zones

All times are in EDT time to prevent confusion due to time zone crossing. See the CPT7773 flight status page for this flight to view local times or setup timezone preferences in your user account.

Time Position Orientation Groundspeed Altitude Reporting Facility
EDT Latitude Longitude Course Direction KTS MPH feet Rate Location/Type
08:12PM 44.5253 -108.9331 121° Southeast 173 199 6,500  Level Salt Lake Center
08:13PM 44.5208 -108.8661 95° East 147 169 7,400 720 Climbing Salt Lake Center
08:14PM 44.5172 -108.8089 95° East 147 169 8,100 600 Climbing Salt Lake Center
08:15PM 44.4925 -108.7636 127° Southeast 150 173 8,700 600 Climbing Salt Lake Center
08:16PM 44.4653 -108.7231 133° Southeast 147 169 9,400 660 Climbing Salt Lake Center
08:17PM 44.4082 -108.7636 121° Southeast  Level FlightAware Approximate
08:17PM 44.4397 -108.6825 131° Southeast 144 166 10,100  Level Salt Lake Center
08:18PM 44.4147 -108.6453 133° Southeast 139 160 10,800 420 Climbing Salt Lake Center
08:19PM 44.3892 -108.6053 132° Southeast 137 158 11,000 60 Climbing Salt Lake Center
08:20PM 44.3517 -108.5500 133° Southeast 148 170 11,000  Level Salt Lake Center
08:21PM 44.3189 -108.5000 132° Southeast 161 185 11,000  Level Salt Lake Center
08:22PM 44.2875 -108.4492 131° Southeast 168 193 11,000  Level Salt Lake Center
08:23PM 44.2561 -108.4000 132° Southeast 170 196 11,100  Climbing Salt Lake Center
08:24PM 44.2231 -108.3503 133° Southeast 172 198 11,000 -60 Descending Salt Lake Center
08:25PM 44.1917 -108.3028 133° Southeast 171 197 11,000  Level Salt Lake Center
08:26PM 44.1550 -108.2444 131° Southeast 169 194 11,000  Level Salt Lake Center
08:27PM 44.1242 -108.1975 132° Southeast 167 192 11,100  Climbing Salt Lake Center
08:28PM 44.0925 -108.1497 133° Southeast 167 192 11,100  Level Salt Lake Center
08:29PM 44.0597 -108.1003 133° Southeast 170 196 11,100 -60 Level Salt Lake Center
08:30PM 44.0264 -108.0503 135° Southeast 173 199 11,000 -60 Descending Salt Lake Center
08:31PM 44.0202 -108.0461 135° Southeast  Level FlightAware Approximate
08:31PM 43.9944 -108.0017 132° Southeast 173 199 11,000  Level Salt Lake Center
08:32PM 43.9575 -107.9428 131° Southeast 171 197 11,100  Climbing Salt Lake Center
08:33PM 43.9306 -107.8906 126° Southeast 168 193 11,100  Level Salt Lake Center
08:35PM 43.8758 -107.7797 124° Southeast 172 198 11,100  Level Salt Lake Center
08:36PM 43.8469 -107.7244 126° Southeast 175 201 11,100  Level Salt Lake Center
08:37PM 43.8181 -107.6697 126° Southeast 176 203 11,100 -60 Level Salt Lake Center
08:38PM 43.7897 -107.6144 125° Southeast 177 204 11,000  Descending Salt Lake Center
08:39PM 43.7561 -107.5483 125° Southeast 176 203 11,100  Climbing Salt Lake Center
08:40PM 43.7278 -107.4939 126° Southeast 176 203 11,000 -120 Descending Salt Lake Center
08:41PM 43.6994 -107.4383 125° Southeast 176 203 10,900 -60 Descending Salt Lake Center
08:42PM 43.6725 -107.3836 124° Southeast 175 201 10,900  Level Salt Lake Center
08:43PM 43.6458 -107.3306 125° Southeast 173 199 10,900  Level Salt Lake Center
08:44PM 43.6161 -107.2767 127° Southeast 173 199 10,900  Level Salt Lake Center
08:46PM 43.5858 -107.2231 128° Southeast 176 203 10,900  Level Salt Lake Center
08:47PM 43.5500 -107.1544 126° Southeast 180 207 10,900  Level Salt Lake Center
08:48PM 43.5211 -107.0964 124° Southeast 184 212 10,900  Level Salt Lake Center
08:49PM 43.4908 -107.0364 125° Southeast 189 217 10,900  Level Salt Lake Center
08:50PM 43.4608 -106.9803 126° Southeast 185 213 10,900  Level Salt Lake Center
08:51PM 43.4278 -106.9206 127° Southeast 191 220 11,000  Climbing Salt Lake Center
08:52PM 43.3939 -106.8581 127° Southeast 185 213 11,000 -180 Level Salt Lake Center
08:53PM 43.3522 -106.8311 155° Southeast 171 197 10,700 -540 Descending Salt Lake Center
08:54PM 43.3136 -106.7964 147° Southeast 173 199 10,000 -540 Descending Salt Lake Center
08:55PM 43.2719 -106.7589 147° Southeast 164 189 9,600 -240 Descending Salt Lake Center
08:56PM 43.2372 -106.7264 146° Southeast 159 183 9,600 -300 Level Salt Lake Center
08:57PM 43.1956 -106.6950 151° Southeast 154 177 9,100 -480 Descending Salt Lake Center
08:58PM 43.1650 -106.6636 143° Southeast 148 170 8,700 -480 Descending Salt Lake Center
08:59PM 43.1247 -106.6267 146° Southeast 150 173 8,200 -600 Descending Salt Lake Center
09:00PM 43.0742 -106.5853 149° Southeast 158 182 7,300 -480 Descending Denver Center
09:02PM 43.0211 -106.5397 148° Southeast 211 243 7,000 -300 Descending Denver Center
09:03PM 42.9939 -106.5083 140° Southeast 141 162 6,700 -240 Descending Denver Center
09:04PM 42.9650 -106.4731 138° Southeast 141 162 6,600 -120 Descending Denver Center